sensor_id;sensor_type;location;lat;lon;timestamp;temperature;humidity
52024;DHT22;38038;45.922;13.604;2022-10-16T00:01:06;13.00;99.90
52024;DHT22;38038;45.922;13.604;2022-10-16T00:03:31;13.00;99.90
52024;DHT22;38038;45.922;13.604;2022-10-16T00:06:00;13.10;99.90
52024;DHT22;38038;45.922;13.604;2022-10-16T00:08:26;13.10;99.90
52024;DHT22;38038;45.922;13.604;2022-10-16T00:10:51;13.10;99.90
52024;DHT22;38038;45.922;13.604;2022-10-16T00:13:17;13.00;99.90
52024;DHT22;38038;45.922;13.604;2022-10-16T00:15:45;12.90;99.90
52024;DHT22;38038;45.922;13.604;2022-10-16T00:18:12;12.80;99.90
52024;DHT22;38038;45.922;13.604;2022-10-16T00:20:37;12.90;99.90
52024;DHT22;38038;45.922;13.604;2022-10-16T00:23:04;12.80;99.90
52024;DHT22;38038;45.922;13.604;2022-10-16T00:25:30;12.60;99.90
52024;DHT22;38038;45.922;13.604;2022-10-16T00:27:59;12.50;99.90
52024;DHT22;38038;45.922;13.604;2022-10-16T00:30:24;12.40;99.90
52024;DHT22;38038;45.922;13.604;2022-10-16T00:32:53;12.40;99.90
52024;DHT22;38038;45.922;13.604;2022-10-16T00:35:18;12.40;99.90
52024;DHT22;38038;45.922;13.604;2022-10-16T00:37:44;12.40;99.90
52024;DHT22;38038;45.922;13.604;2022-10-16T00:40:10;12.40;99.90
52024;DHT22;38038;45.922;13.604;2022-10-16T00:42:36;12.30;99.90
52024;DHT22;38038;45.922;13.604;2022-10-16T00:45:02;12.30;99.90
52024;DHT22;38038;45.922;13.604;2022-10-16T00:47:43;12.30;99.90
52024;DHT22;38038;45.922;13.604;2022-10-16T00:50:23;12.20;99.90
52024;DHT22;38038;45.922;13.604;2022-10-16T00:52:50;12.20;99.90
52024;DHT22;38038;45.922;13.604;2022-10-16T00:55:17;12.10;99.90
52024;DHT22;38038;45.922;13.604;2022-10-16T00:57:44;12.20;99.90
52024;DHT22;38038;45.922;13.604;2022-10-16T01:00:14;12.10;99.90
52024;DHT22;38038;45.922;13.604;2022-10-16T01:02:40;12.10;99.90
52024;DHT22;38038;45.922;13.604;2022-10-16T01:05:05;12.10;99.90
52024;DHT22;38038;45.922;13.604;2022-10-16T01:07:56;12.10;99.90
52024;DHT22;38038;45.922;13.604;2022-10-16T01:13:09;12.10;99.90
52024;DHT22;38038;45.922;13.604;2022-10-16T01:21:28;12.10;99.90
52024;DHT22;38038;45.922;13.604;2022-10-16T01:29:25;12.10;99.90
52024;DHT22;38038;45.922;13.604;2022-10-16T01:32:08;12.20;99.90
52024;DHT22;38038;45.922;13.604;2022-10-16T01:34:39;12.20;99.90
52024;DHT22;38038;45.922;13.604;2022-10-16T01:37:15;12.30;99.90
52024;DHT22;38038;45.922;13.604;2022-10-16T01:39:45;12.30;99.90
52024;DHT22;38038;45.922;13.604;2022-10-16T01:42:23;12.40;99.90
52024;DHT22;38038;45.922;13.604;2022-10-16T01:44:51;12.30;99.90
52024;DHT22;38038;45.922;13.604;2022-10-16T01:47:19;12.30;99.90
52024;DHT22;38038;45.922;13.604;2022-10-16T01:49:48;12.30;99.90
52024;DHT22;38038;45.922;13.604;2022-10-16T01:52:18;12.30;99.90
52024;DHT22;38038;45.922;13.604;2022-10-16T01:54:48;12.30;99.90
52024;DHT22;38038;45.922;13.604;2022-10-16T01:57:16;12.30;99.90
52024;DHT22;38038;45.922;13.604;2022-10-16T01:59:46;12.40;99.90
52024;DHT22;38038;45.922;13.604;2022-10-16T02:02:13;12.40;99.90
52024;DHT22;38038;45.922;13.604;2022-10-16T02:04:55;12.40;99.90
52024;DHT22;38038;45.922;13.604;2022-10-16T02:07:23;12.30;99.90
52024;DHT22;38038;45.922;13.604;2022-10-16T02:09:49;12.30;99.90
52024;DHT22;38038;45.922;13.604;2022-10-16T02:12:28;12.30;99.90
52024;DHT22;38038;45.922;13.604;2022-10-16T02:14:55;12.40;99.90
52024;DHT22;38038;45.922;13.604;2022-10-16T02:17:22;12.40;99.90
52024;DHT22;38038;45.922;13.604;2022-10-16T02:19:50;12.40;99.90
52024;DHT22;38038;45.922;13.604;2022-10-16T02:22:36;12.40;99.90
52024;DHT22;38038;45.922;13.604;2022-10-16T02:25:11;12.30;99.90
52024;DHT22;38038;45.922;13.604;2022-10-16T02:27:48;12.20;99.90
52024;DHT22;38038;45.922;13.604;2022-10-16T02:30:31;12.20;99.90
52024;DHT22;38038;45.922;13.604;2022-10-16T02:33:00;12.20;99.90
52024;DHT22;38038;45.922;13.604;2022-10-16T02:35:28;12.30;99.90
52024;DHT22;38038;45.922;13.604;2022-10-16T02:37:56;12.30;99.90
52024;DHT22;38038;45.922;13.604;2022-10-16T02:40:22;12.40;99.90
52024;DHT22;38038;45.922;13.604;2022-10-16T02:42:51;12.40;99.90
52024;DHT22;38038;45.922;13.604;2022-10-16T02:45:17;12.50;99.90
52024;DHT22;38038;45.922;13.604;2022-10-16T02:47:43;12.50;99.90
52024;DHT22;38038;45.922;13.604;2022-10-16T02:50:09;12.60;99.90
52024;DHT22;38038;45.922;13.604;2022-10-16T02:52:35;12.60;99.90
52024;DHT22;38038;45.922;13.604;2022-10-16T02:55:01;12.60;99.90
52024;DHT22;38038;45.922;13.604;2022-10-16T02:57:26;12.60;99.90
52024;DHT22;38038;45.922;13.604;2022-10-16T02:59:52;12.70;99.90
52024;DHT22;38038;45.922;13.604;2022-10-16T20:14:46;14.70;99.90
52024;DHT22;38038;45.922;13.604;2022-10-16T20:17:12;14.60;99.90
52024;DHT22;38038;45.922;13.604;2022-10-16T20:19:38;14.60;99.90
52024;DHT22;38038;45.922;13.604;2022-10-16T20:22:04;14.60;99.90
52024;DHT22;38038;45.922;13.604;2022-10-16T20:24:30;14.50;99.90
52024;DHT22;38038;45.922;13.604;2022-10-16T20:26:56;14.30;99.90
52024;DHT22;38038;45.922;13.604;2022-10-16T20:29:23;14.30;99.90
52024;DHT22;38038;45.922;13.604;2022-10-16T20:31:48;14.30;99.90
52024;DHT22;38038;45.922;13.604;2022-10-16T20:34:14;14.20;99.90
52024;DHT22;38038;45.922;13.604;2022-10-16T20:36:40;14.10;99.90
52024;DHT22;38038;45.922;13.604;2022-10-16T20:39:10;14.20;99.90
52024;DHT22;38038;45.922;13.604;2022-10-16T20:41:38;14.20;99.90
52024;DHT22;38038;45.922;13.604;2022-10-16T20:44:03;14.00;99.90
52024;DHT22;38038;45.922;13.604;2022-10-16T20:46:29;14.00;99.90
52024;DHT22;38038;45.922;13.604;2022-10-16T20:48:56;14.10;99.90
52024;DHT22;38038;45.922;13.604;2022-10-16T20:53:57;14.10;99.90
52024;DHT22;38038;45.922;13.604;2022-10-16T20:56:28;14.10;99.90
52024;DHT22;38038;45.922;13.604;2022-10-16T20:58:54;14.20;99.90
52024;DHT22;38038;45.922;13.604;2022-10-16T21:01:23;14.30;99.90
52024;DHT22;38038;45.922;13.604;2022-10-16T21:03:53;14.30;99.90
52024;DHT22;38038;45.922;13.604;2022-10-16T21:06:18;14.30;99.90
52024;DHT22;38038;45.922;13.604;2022-10-16T21:08:44;14.30;99.90
52024;DHT22;38038;45.922;13.604;2022-10-16T21:11:22;14.30;99.90
52024;DHT22;38038;45.922;13.604;2022-10-16T21:13:49;14.40;99.90
52024;DHT22;38038;45.922;13.604;2022-10-16T21:16:16;14.40;99.90
52024;DHT22;38038;45.922;13.604;2022-10-16T21:18:42;14.30;99.90
52024;DHT22;38038;45.922;13.604;2022-10-16T21:21:09;14.20;99.90
52024;DHT22;38038;45.922;13.604;2022-10-16T21:23:36;14.10;99.90
52024;DHT22;38038;45.922;13.604;2022-10-16T21:26:03;14.00;99.90
52024;DHT22;38038;45.922;13.604;2022-10-16T21:28:32;14.00;99.90
52024;DHT22;38038;45.922;13.604;2022-10-16T21:30:58;14.10;99.90
52024;DHT22;38038;45.922;13.604;2022-10-16T21:33:25;13.90;99.90
52024;DHT22;38038;45.922;13.604;2022-10-16T21:35:51;14.00;99.90
52024;DHT22;38038;45.922;13.604;2022-10-16T21:38:16;14.00;99.90
52024;DHT22;38038;45.922;13.604;2022-10-16T21:40:42;14.10;99.90
52024;DHT22;38038;45.922;13.604;2022-10-16T21:43:08;14.10;99.90
52024;DHT22;38038;45.922;13.604;2022-10-16T21:45:35;14.00;99.90
52024;DHT22;38038;45.922;13.604;2022-10-16T21:48:01;13.90;99.90
52024;DHT22;38038;45.922;13.604;2022-10-16T21:50:26;13.80;99.90
52024;DHT22;38038;45.922;13.604;2022-10-16T21:52:52;13.80;99.90
52024;DHT22;38038;45.922;13.604;2022-10-16T21:55:18;13.70;99.90
52024;DHT22;38038;45.922;13.604;2022-10-16T21:57:43;13.60;99.90
52024;DHT22;38038;45.922;13.604;2022-10-16T22:00:09;13.60;99.90
52024;DHT22;38038;45.922;13.604;2022-10-16T22:02:35;13.60;99.90
52024;DHT22;38038;45.922;13.604;2022-10-16T22:05:01;13.60;99.90
52024;DHT22;38038;45.922;13.604;2022-10-16T22:07:27;13.60;99.90
52024;DHT22;38038;45.922;13.604;2022-10-16T22:09:53;13.50;99.90
52024;DHT22;38038;45.922;13.604;2022-10-16T22:12:19;13.50;99.90
52024;DHT22;38038;45.922;13.604;2022-10-16T22:14:45;13.50;99.90
52024;DHT22;38038;45.922;13.604;2022-10-16T22:17:12;13.40;99.90
52024;DHT22;38038;45.922;13.604;2022-10-16T22:19:38;13.50;99.90
52024;DHT22;38038;45.922;13.604;2022-10-16T22:22:03;13.40;99.90
52024;DHT22;38038;45.922;13.604;2022-10-16T22:24:29;13.40;99.90
52024;DHT22;38038;45.922;13.604;2022-10-16T22:26:55;13.20;99.90
52024;DHT22;38038;45.922;13.604;2022-10-16T22:29:21;13.30;99.90
52024;DHT22;38038;45.922;13.604;2022-10-16T22:31:50;13.30;99.90
52024;DHT22;38038;45.922;13.604;2022-10-16T22:34:17;13.20;99.90
52024;DHT22;38038;45.922;13.604;2022-10-16T22:36:42;13.30;99.90
52024;DHT22;38038;45.922;13.604;2022-10-16T22:39:08;13.30;99.90
52024;DHT22;38038;45.922;13.604;2022-10-16T22:41:35;13.20;99.90
52024;DHT22;38038;45.922;13.604;2022-10-16T22:44:01;13.20;99.90
52024;DHT22;38038;45.922;13.604;2022-10-16T22:46:29;13.10;99.90
52024;DHT22;38038;45.922;13.604;2022-10-16T22:48:55;13.00;99.90
52024;DHT22;38038;45.922;13.604;2022-10-16T22:51:21;13.10;99.90
52024;DHT22;38038;45.922;13.604;2022-10-16T22:53:48;13.10;99.90
52024;DHT22;38038;45.922;13.604;2022-10-16T22:56:16;13.10;99.90
52024;DHT22;38038;45.922;13.604;2022-10-16T22:58:42;13.20;99.90
52024;DHT22;38038;45.922;13.604;2022-10-16T23:03:44;13.00;99.90
52024;DHT22;38038;45.922;13.604;2022-10-16T23:06:10;13.00;99.90
52024;DHT22;38038;45.922;13.604;2022-10-16T23:08:36;13.00;99.90
52024;DHT22;38038;45.922;13.604;2022-10-16T23:11:07;12.80;99.90
52024;DHT22;38038;45.922;13.604;2022-10-16T23:13:35;12.90;99.90
52024;DHT22;38038;45.922;13.604;2022-10-16T23:16:02;12.80;99.90
52024;DHT22;38038;45.922;13.604;2022-10-16T23:18:29;12.80;99.90
52024;DHT22;38038;45.922;13.604;2022-10-16T23:20:55;12.80;99.90
52024;DHT22;38038;45.922;13.604;2022-10-16T23:23:20;12.90;99.90
52024;DHT22;38038;45.922;13.604;2022-10-16T23:25:46;12.90;99.90
52024;DHT22;38038;45.922;13.604;2022-10-16T23:28:13;12.90;99.90
52024;DHT22;38038;45.922;13.604;2022-10-16T23:30:39;12.80;99.90
52024;DHT22;38038;45.922;13.604;2022-10-16T23:33:04;12.90;99.90
52024;DHT22;38038;45.922;13.604;2022-10-16T23:35:30;13.00;99.90
52024;DHT22;38038;45.922;13.604;2022-10-16T23:37:56;13.00;99.90
52024;DHT22;38038;45.922;13.604;2022-10-16T23:40:23;12.90;99.90
52024;DHT22;38038;45.922;13.604;2022-10-16T23:42:48;12.80;99.90
52024;DHT22;38038;45.922;13.604;2022-10-16T23:45:14;12.70;99.90
52024;DHT22;38038;45.922;13.604;2022-10-16T23:47:40;12.80;99.90
52024;DHT22;38038;45.922;13.604;2022-10-16T23:50:07;12.80;99.90
52024;DHT22;38038;45.922;13.604;2022-10-16T23:52:33;12.80;99.90
52024;DHT22;38038;45.922;13.604;2022-10-16T23:54:59;12.80;99.90
52024;DHT22;38038;45.922;13.604;2022-10-16T23:57:24;12.70;99.90
52024;DHT22;38038;45.922;13.604;2022-10-16T23:59:50;12.60;99.90
